createdAt,value
2019-03-28T00:00:44.569Z,2.95
2019-03-28T00:03:16.967Z,4.70
2019-03-28T00:05:48.850Z,3.98
2019-03-28T00:08:19.117Z,5.62
2019-03-28T00:10:49.334Z,3.80
2019-03-28T00:13:19.621Z,5.10
2019-03-28T00:15:49.917Z,4.28
2019-03-28T00:18:21.822Z,4.50
2019-03-28T00:20:52.028Z,3.35
2019-03-28T00:23:45.243Z,3.42
2019-03-28T00:26:15.445Z,4.20
2019-03-28T00:28:45.646Z,3.30
2019-03-28T00:31:15.838Z,3.98
2019-03-28T00:33:47.642Z,5.17
2019-03-28T00:36:17.926Z,4.05
2019-03-28T00:38:48.130Z,4.85
2019-03-28T00:41:18.467Z,4.70
2019-03-28T00:43:51.171Z,5.53
2019-03-28T00:46:22.431Z,5.05
2019-03-28T00:48:53.173Z,3.45
2019-03-28T00:51:25.162Z,4.37
2019-03-28T00:53:56.100Z,5.03
2019-03-28T00:56:26.523Z,4.85
2019-03-28T00:58:57.242Z,3.65
2019-03-28T01:01:32.847Z,4.85
2019-03-28T01:04:05.736Z,4.12
2019-03-28T01:06:35.936Z,4.12
2019-03-28T01:09:09.226Z,5.62
2019-03-28T01:11:39.511Z,3.92
2019-03-28T01:14:09.781Z,4.10
2019-03-28T01:16:39.973Z,5.17
2019-03-28T01:19:10.196Z,4.50
2019-03-28T01:21:42.506Z,4.10
2019-03-28T01:24:12.701Z,4.28
2019-03-28T01:26:56.762Z,4.37
2019-03-28T01:29:19.364Z,5.30
2019-03-28T01:31:49.573Z,4.47
2019-03-28T01:34:22.285Z,3.60
2019-03-28T01:36:52.537Z,2.75
2019-03-28T01:39:22.764Z,3.87
2019-03-28T01:41:52.964Z,4.22
2019-03-28T01:44:23.289Z,4.65
2019-03-28T01:46:53.563Z,5.10
2019-03-28T01:49:24.370Z,5.72
2019-03-28T01:51:56.814Z,5.80
2019-03-28T01:54:33.123Z,3.45
2019-03-28T01:57:10.975Z,4.40
2019-03-28T01:59:35.449Z,3.12
2019-03-28T02:02:05.652Z,4.00
2019-03-28T02:04:35.926Z,4.30
2019-03-28T02:07:08.113Z,3.30
2019-03-28T02:09:43.116Z,6.35
2019-03-28T02:12:13.389Z,7.40
2019-03-28T02:14:43.616Z,6.90
2019-03-28T02:17:13.818Z,5.83
2019-03-28T02:19:44.068Z,5.87
2019-03-28T02:22:14.448Z,5.58
2019-03-28T02:24:44.732Z,4.37
2019-03-28T02:27:23.760Z,4.22
2019-03-28T02:29:48.560Z,4.37
2019-03-28T02:32:18.777Z,4.33
2019-03-28T02:34:49.300Z,5.40
2019-03-28T02:37:19.542Z,5.17
2019-03-28T02:39:50.691Z,6.12
2019-03-28T02:42:23.719Z,7.40
2019-03-28T02:44:53.996Z,6.75
2019-03-28T02:47:24.364Z,5.53
2019-03-28T02:49:54.618Z,5.72
2019-03-28T02:52:24.901Z,5.55
2019-03-28T02:54:55.169Z,5.17
2019-03-28T02:57:40.055Z,4.20
2019-03-28T02:59:57.272Z,6.15
2019-03-28T03:02:28.831Z,6.15
2019-03-28T03:04:59.037Z,4.30
2019-03-28T03:07:29.299Z,4.62
2019-03-28T03:09:59.549Z,4.17
2019-03-28T03:12:29.769Z,3.30
2019-03-28T03:15:00.034Z,4.40
2019-03-28T03:17:30.244Z,3.90
2019-03-28T03:20:00.419Z,3.77
2019-03-28T03:22:32.615Z,5.10
2019-03-28T03:25:02.913Z,5.33
2019-03-28T03:27:33.199Z,4.75
2019-03-28T03:30:03.915Z,4.08
2019-03-28T03:32:34.222Z,3.70
2019-03-28T03:35:04.797Z,5.35
2019-03-28T03:37:35.046Z,5.15
2019-03-28T03:40:06.568Z,3.70
2019-03-28T03:42:36.975Z,3.12
2019-03-28T03:45:09.064Z,4.70
2019-03-28T03:47:39.726Z,3.55
2019-03-28T03:50:13.610Z,4.47
2019-03-28T03:52:43.895Z,4.50
2019-03-28T03:55:14.079Z,3.67
2019-03-28T03:57:44.378Z,3.30
2019-03-28T04:00:17.782Z,3.37
2019-03-28T04:02:48.022Z,5.97
2019-03-28T04:05:18.286Z,4.30
2019-03-28T04:07:48.477Z,7.10
2019-03-28T04:10:18.688Z,3.27
2019-03-28T04:12:51.394Z,4.37
2019-03-28T04:15:21.701Z,2.92
2019-03-28T04:17:53.895Z,3.15
2019-03-28T04:20:28.599Z,4.65
2019-03-28T04:23:05.092Z,4.15
2019-03-28T04:25:31.240Z,2.72
2019-03-28T04:28:01.509Z,5.70
2019-03-28T04:30:31.714Z,4.10
2019-03-28T04:33:02.774Z,2.58
2019-03-28T04:35:33.047Z,2.60
2019-03-28T04:38:03.337Z,3.02
2019-03-28T04:40:34.446Z,3.35
2019-03-28T04:43:06.412Z,3.05
2019-03-28T04:45:39.422Z,3.55
2019-03-28T04:48:09.635Z,2.65
2019-03-28T04:50:42.336Z,4.47
2019-03-28T04:53:12.653Z,2.42
2019-03-28T04:55:42.938Z,4.28
2019-03-28T04:58:13.202Z,2.65
2019-03-28T05:00:43.632Z,3.50
2019-03-28T05:03:13.834Z,2.22
2019-03-28T05:05:44.031Z,3.70
2019-03-28T05:08:14.237Z,3.58
2019-03-28T05:10:44.467Z,2.58
2019-03-28T05:13:14.742Z,2.40
2019-03-28T05:15:45.057Z,3.02
2019-03-28T05:18:15.436Z,1.95
2019-03-28T05:20:47.484Z,2.45
2019-03-28T05:23:19.462Z,3.12
2019-03-28T05:25:50.253Z,4.20
2019-03-28T05:28:20.535Z,2.12
2019-03-28T05:30:50.866Z,2.22
2019-03-28T05:33:23.582Z,2.05
2019-03-28T05:35:53.781Z,2.00
2019-03-28T05:38:23.978Z,1.95
2019-03-28T05:40:57.264Z,1.55
2019-03-28T05:43:32.294Z,1.80
2019-03-28T05:46:02.559Z,2.05
2019-03-28T05:48:32.835Z,1.47
2019-03-28T05:51:04.237Z,2.20
2019-03-28T05:53:38.457Z,1.90
2019-03-28T05:56:08.710Z,2.75
2019-03-28T05:58:38.934Z,1.55
2019-03-28T06:01:09.229Z,1.57
2019-03-28T06:03:39.552Z,2.00
2019-03-28T06:06:09.939Z,1.65
2019-03-28T06:08:40.217Z,3.22
2019-03-28T06:11:11.402Z,2.52
2019-03-28T06:13:43.204Z,2.85
2019-03-28T06:16:15.806Z,2.87
2019-03-28T06:18:46.416Z,2.83
2019-03-28T06:21:16.806Z,2.85
2019-03-28T06:23:47.013Z,3.00
2019-03-28T06:26:17.225Z,2.27
2019-03-28T06:28:49.833Z,2.72
2019-03-28T06:31:20.086Z,2.90
2019-03-28T06:33:52.072Z,2.40
2019-03-28T06:36:22.259Z,3.47
2019-03-28T06:38:52.459Z,3.37
2019-03-28T06:41:23.312Z,2.65
2019-03-28T06:43:55.366Z,3.20
2019-03-28T06:46:25.709Z,3.60
2019-03-28T06:48:55.984Z,3.40
2019-03-28T06:51:26.225Z,3.58
2019-03-28T06:53:57.960Z,2.58
2019-03-28T06:56:28.195Z,3.55
2019-03-28T06:58:58.497Z,3.02
2019-03-28T07:01:28.779Z,4.60
2019-03-28T07:03:59.004Z,2.35
2019-03-28T07:06:29.289Z,3.22
2019-03-28T07:09:01.130Z,2.27
2019-03-28T07:11:33.073Z,3.40
2019-03-28T07:14:05.617Z,3.05
2019-03-28T07:16:36.801Z,6.30
2019-03-28T07:19:07.086Z,5.37
2019-03-28T07:21:44.385Z,4.30
2019-03-28T07:24:17.168Z,4.05
2019-03-28T07:26:47.483Z,4.25
2019-03-28T07:29:17.755Z,3.95
2019-03-28T07:31:49.688Z,3.65
2019-03-28T07:34:20.008Z,3.00
2019-03-28T07:36:50.362Z,4.08
2019-03-28T07:39:20.769Z,4.03
2019-03-28T07:41:55.881Z,3.60
2019-03-28T07:44:28.579Z,3.10
2019-03-28T07:46:58.884Z,3.95
2019-03-28T07:49:32.197Z,3.27
2019-03-28T07:52:02.527Z,3.87
2019-03-28T07:54:33.819Z,2.47
2019-03-28T07:57:07.747Z,4.30
2019-03-28T07:59:38.150Z,1.77
2019-03-28T08:02:11.714Z,3.55
2019-03-28T08:04:41.895Z,2.70
2019-03-28T08:07:12.106Z,3.27
2019-03-28T08:09:42.390Z,2.02
2019-03-28T08:12:22.440Z,2.80
2019-03-28T08:15:01.849Z,2.60
2019-03-28T08:17:33.271Z,1.60
2019-03-28T08:20:04.325Z,2.30
2019-03-28T08:22:37.202Z,2.10
2019-03-28T08:25:11.727Z,3.12
2019-03-28T08:27:41.701Z,3.20
2019-03-28T08:30:18.692Z,1.90
2019-03-28T08:32:46.874Z,2.33
2019-03-28T08:35:17.147Z,3.30
2019-03-28T08:37:47.714Z,2.92
2019-03-28T08:40:39.656Z,2.58
2019-03-28T08:43:08.842Z,1.98
2019-03-28T08:45:41.355Z,2.92
2019-03-28T08:48:11.707Z,2.00
2019-03-28T08:50:43.710Z,1.80
2019-03-28T08:53:13.991Z,2.05
2019-03-28T08:55:45.883Z,2.67
2019-03-28T08:58:16.166Z,2.00
2019-03-28T09:00:51.947Z,1.87
2019-03-28T09:03:20.619Z,2.33
2019-03-28T09:06:09.786Z,2.47
2019-03-28T09:08:40.073Z,2.62
2019-03-28T09:11:10.481Z,1.60
2019-03-28T09:13:40.768Z,2.30
2019-03-28T09:16:10.984Z,3.20
2019-03-28T09:18:41.299Z,3.00
2019-03-28T09:21:11.533Z,2.00
2019-03-28T09:23:41.753Z,2.17
2019-03-28T09:26:12.268Z,1.70
2019-03-28T09:28:45.086Z,1.67
2019-03-28T09:31:20.151Z,1.77
2019-03-28T09:33:49.232Z,1.50
2019-03-28T09:36:21.940Z,2.00
2019-03-28T09:38:54.659Z,1.32
2019-03-28T09:41:25.558Z,1.25
2019-03-28T09:43:57.080Z,2.08
2019-03-28T09:46:29.475Z,2.25
2019-03-28T09:48:59.790Z,1.45
2019-03-28T09:51:30.004Z,9.23
2019-03-28T09:54:01.773Z,2.33
2019-03-28T09:56:32.213Z,2.65
2019-03-28T09:59:02.614Z,2.20
2019-03-28T10:01:32.842Z,1.98
2019-03-28T10:04:06.180Z,2.83
2019-03-28T10:06:35.052Z,3.58
2019-03-28T10:09:07.177Z,2.30
2019-03-28T10:11:37.547Z,2.45
2019-03-28T10:14:07.822Z,2.77
2019-03-28T10:16:40.667Z,1.85
2019-03-28T10:19:14.124Z,2.62
2019-03-28T10:21:44.454Z,1.85
2019-03-28T10:24:15.751Z,2.08
2019-03-28T10:26:50.032Z,1.70
2019-03-28T10:29:20.294Z,1.65
2019-03-28T10:31:50.568Z,2.35
2019-03-28T10:34:20.844Z,1.82
2019-03-28T10:36:51.073Z,2.33
2019-03-28T10:39:22.428Z,2.08
2019-03-28T10:41:52.699Z,1.87
2019-03-28T10:44:22.894Z,2.33
2019-03-28T10:46:54.191Z,2.10
2019-03-28T10:49:24.431Z,1.55
2019-03-28T10:51:55.669Z,3.17
2019-03-28T10:54:25.973Z,2.20
2019-03-28T10:56:58.032Z,1.77
2019-03-28T10:59:29.820Z,1.80
2019-03-28T11:02:02.022Z,2.05
2019-03-28T11:04:32.242Z,2.35
2019-03-28T11:07:07.054Z,1.75
2019-03-28T11:09:37.252Z,2.30
2019-03-28T11:12:07.435Z,1.60
2019-03-28T11:14:41.836Z,2.22
2019-03-28T11:17:12.040Z,2.52
2019-03-28T11:19:42.275Z,1.80
2019-03-28T11:22:12.679Z,1.98
2019-03-28T11:24:46.297Z,1.82
2019-03-28T11:27:16.396Z,1.92
2019-03-28T11:29:46.814Z,1.62
2019-03-28T11:32:17.007Z,2.90
2019-03-28T11:34:47.248Z,1.80
2019-03-28T11:37:25.836Z,1.98
2019-03-28T11:39:49.409Z,1.72
2019-03-28T11:42:19.675Z,1.65
2019-03-28T11:44:49.992Z,1.90
2019-03-28T11:47:22.188Z,1.65
2019-03-28T11:49:52.103Z,1.70
2019-03-28T11:52:22.408Z,1.27
2019-03-28T11:54:52.698Z,1.40
2019-03-28T11:57:27.429Z,2.02
2019-03-28T11:59:58.682Z,1.72
2019-03-28T12:02:30.127Z,2.02
2019-03-28T12:05:00.459Z,2.50
2019-03-28T12:07:30.776Z,2.25
2019-03-28T12:10:01.140Z,2.80
2019-03-28T12:12:33.122Z,1.82
2019-03-28T12:15:04.630Z,2.42
2019-03-28T12:17:35.173Z,2.17
2019-03-28T12:20:06.219Z,1.92
2019-03-28T12:22:36.633Z,1.80
2019-03-28T12:25:07.202Z,2.33
2019-03-28T12:27:37.730Z,2.60
2019-03-28T12:30:08.927Z,2.67
2019-03-28T12:32:39.238Z,1.30
2019-03-28T12:35:10.426Z,1.82
2019-03-28T12:37:41.755Z,2.02
2019-03-28T12:40:13.649Z,1.55
2019-03-28T12:42:43.921Z,2.30
2019-03-28T12:45:14.579Z,1.60
2019-03-28T12:47:44.780Z,2.37
2019-03-28T12:50:16.963Z,1.45
2019-03-28T12:52:47.305Z,1.57
2019-03-28T12:55:17.586Z,2.22
2019-03-28T12:57:49.907Z,2.55
2019-03-28T13:00:29.553Z,2.00
2019-03-28T13:02:59.766Z,1.60
2019-03-28T13:05:30.069Z,2.37
2019-03-28T13:08:00.350Z,1.15
2019-03-28T13:10:30.557Z,1.70
2019-03-28T13:13:00.861Z,1.87
2019-03-28T13:15:31.266Z,1.70
2019-03-28T13:18:09.019Z,1.32
2019-03-28T13:20:39.235Z,1.95
2019-03-28T13:23:10.987Z,1.17
2019-03-28T13:25:44.890Z,1.60
2019-03-28T13:28:15.151Z,1.20
2019-03-28T13:30:45.320Z,1.07
2019-03-28T13:33:23.202Z,1.60
2019-03-28T13:35:53.316Z,1.60
2019-03-28T13:38:23.502Z,5.30
2019-03-28T13:40:53.678Z,3.42
2019-03-28T13:43:23.864Z,2.87
2019-03-28T13:45:55.788Z,2.60
2019-03-28T13:48:25.955Z,1.85
2019-03-28T13:50:56.131Z,1.65
2019-03-28T13:53:39.184Z,1.47
2019-03-28T13:56:04.112Z,3.35
2019-03-28T13:58:34.681Z,3.27
2019-03-28T14:01:04.965Z,1.92
2019-03-28T14:03:37.707Z,1.60
2019-03-28T14:06:07.862Z,2.37
2019-03-28T14:08:38.003Z,1.77
2019-03-28T14:11:08.271Z,1.95
2019-03-28T14:13:40.090Z,2.60
2019-03-28T14:16:11.382Z,2.00
2019-03-28T14:18:41.560Z,1.55
2019-03-28T14:21:11.729Z,2.02
2019-03-28T14:23:43.112Z,1.92
2019-03-28T14:26:13.319Z,3.47
2019-03-28T14:28:43.473Z,1.87
2019-03-28T14:31:13.645Z,1.87
2019-03-28T14:33:43.790Z,2.20
2019-03-28T14:36:15.719Z,1.67
2019-03-28T14:38:52.434Z,1.70
2019-03-28T14:41:22.808Z,2.15
2019-03-28T14:43:54.486Z,1.98
2019-03-28T14:46:24.661Z,2.20
2019-03-28T14:48:57.582Z,2.05
2019-03-28T14:51:27.897Z,1.90
2019-03-28T14:53:58.150Z,1.87
2019-03-28T14:56:28.522Z,2.65
2019-03-28T14:58:58.789Z,2.20
2019-03-28T15:01:28.926Z,1.82
2019-03-28T15:04:01.460Z,2.27
2019-03-28T15:06:31.632Z,2.65
2019-03-28T15:09:01.806Z,1.55
2019-03-28T15:11:33.338Z,1.70
2019-03-28T15:14:04.086Z,1.87
2019-03-28T15:16:34.426Z,2.10
2019-03-28T15:19:04.640Z,1.65
2019-03-28T15:21:34.967Z,1.57
2019-03-28T15:24:05.532Z,2.20
2019-03-28T15:26:35.964Z,2.15
2019-03-28T15:29:06.338Z,1.98
2019-03-28T15:31:36.534Z,2.15
2019-03-28T15:34:06.698Z,2.70
2019-03-28T15:36:36.857Z,2.02
2019-03-28T15:39:08.548Z,2.37
2019-03-28T15:41:40.393Z,2.35
2019-03-28T15:44:12.060Z,2.92
2019-03-28T15:46:42.226Z,2.65
2019-03-28T15:49:12.525Z,2.60
2019-03-28T15:51:42.766Z,2.80
2019-03-28T15:54:12.936Z,2.12
2019-03-28T15:56:43.352Z,2.33
2019-03-28T15:59:13.480Z,2.15
2019-03-28T16:01:43.636Z,1.90
2019-03-28T16:04:13.800Z,1.80
2019-03-28T16:06:45.935Z,2.30
2019-03-28T16:09:18.537Z,2.55
2019-03-28T16:12:01.721Z,1.60
2019-03-28T16:14:22.857Z,1.90
2019-03-28T16:16:53.087Z,1.52
2019-03-28T16:19:23.232Z,2.52
2019-03-28T16:21:54.495Z,2.75
2019-03-28T16:24:24.754Z,2.10
2019-03-28T16:26:54.906Z,1.12
2019-03-28T16:29:28.959Z,1.98
2019-03-28T16:31:59.124Z,3.77
2019-03-28T16:34:29.397Z,1.42
2019-03-28T16:36:59.576Z,1.85
2019-03-28T16:39:29.865Z,1.52
2019-03-28T16:42:00.116Z,1.70
2019-03-28T16:44:30.403Z,2.47
2019-03-28T16:47:04.560Z,2.42
2019-03-28T16:49:36.326Z,2.05
2019-03-28T16:52:06.576Z,1.37
2019-03-28T16:54:36.845Z,1.75
2019-03-28T16:57:07.298Z,2.50
2019-03-28T16:59:37.503Z,2.05
2019-03-28T17:02:07.726Z,1.60
2019-03-28T17:04:37.917Z,1.55
2019-03-28T17:07:11.096Z,2.08
2019-03-28T17:09:41.544Z,1.52
2019-03-28T17:12:13.656Z,1.60
2019-03-28T17:14:43.843Z,2.27
2019-03-28T17:17:16.545Z,1.70
2019-03-28T17:19:50.935Z,2.40
2019-03-28T17:22:21.111Z,1.95
2019-03-28T17:24:53.638Z,2.12
2019-03-28T17:27:25.487Z,1.52
2019-03-28T17:29:55.655Z,1.35
2019-03-28T17:32:26.182Z,1.72
2019-03-28T17:34:56.368Z,1.80
2019-03-28T17:37:26.635Z,2.12
2019-03-28T17:39:56.810Z,1.82
2019-03-28T17:42:30.183Z,2.22
2019-03-28T17:45:00.499Z,1.87
2019-03-28T17:47:30.722Z,1.37
2019-03-28T17:50:00.929Z,2.20
2019-03-28T17:52:31.108Z,1.82
2019-03-28T17:55:07.543Z,1.10
2019-03-28T17:57:37.720Z,1.70
2019-03-28T18:00:08.424Z,1.72
2019-03-28T18:02:38.598Z,2.30
2019-03-28T18:05:10.857Z,2.90
2019-03-28T18:07:42.878Z,1.67
2019-03-28T18:10:14.620Z,2.30
2019-03-28T18:12:46.124Z,1.65
2019-03-28T18:15:17.612Z,1.92
2019-03-28T18:17:47.862Z,1.75
2019-03-28T18:20:18.366Z,1.80
2019-03-28T18:22:48.607Z,1.98
2019-03-28T18:25:18.834Z,1.98
2019-03-28T18:27:49.008Z,2.22
2019-03-28T18:30:19.990Z,2.40
2019-03-28T18:32:50.472Z,2.00
2019-03-28T18:35:23.175Z,1.80
2019-03-28T18:37:57.757Z,2.08
2019-03-28T18:40:30.516Z,2.30
2019-03-28T18:43:01.620Z,2.02
2019-03-28T18:45:31.938Z,2.95
2019-03-28T18:48:02.091Z,2.08
2019-03-28T18:50:32.358Z,2.30
2019-03-28T18:53:02.536Z,2.52
2019-03-28T18:55:33.030Z,2.15
2019-03-28T18:58:03.340Z,1.20
2019-03-28T19:00:33.762Z,2.70
2019-03-28T19:03:04.074Z,2.67
2019-03-28T19:05:34.444Z,2.45
2019-03-28T19:08:04.790Z,2.05
2019-03-28T19:10:37.677Z,2.72
2019-03-28T19:13:08.165Z,3.08
2019-03-28T19:15:38.314Z,2.10
2019-03-28T19:18:08.480Z,2.00
2019-03-28T19:20:41.356Z,2.98
2019-03-28T19:23:11.550Z,2.42
2019-03-28T19:25:41.746Z,2.65
2019-03-28T19:28:11.917Z,1.50
2019-03-28T19:30:42.124Z,1.72
2019-03-28T19:33:14.899Z,2.00
2019-03-28T19:35:46.277Z,2.77
2019-03-28T19:38:17.043Z,2.30
2019-03-28T19:40:48.705Z,2.60
2019-03-28T19:43:20.883Z,3.35
2019-03-28T19:45:51.847Z,2.25
2019-03-28T19:48:22.053Z,2.30
2019-03-28T19:50:52.230Z,2.35
2019-03-28T19:53:22.400Z,2.62
2019-03-28T19:55:52.575Z,2.20
2019-03-28T19:58:22.713Z,3.98
2019-03-28T20:00:55.093Z,3.37
2019-03-28T20:03:26.710Z,4.45
2019-03-28T20:05:56.902Z,1.50
2019-03-28T20:08:27.248Z,3.02
2019-03-28T20:10:59.124Z,3.00
2019-03-28T20:13:31.026Z,3.40
2019-03-28T20:16:01.372Z,2.75
2019-03-28T20:18:31.555Z,2.80
2019-03-28T20:21:01.796Z,3.70
2019-03-28T20:23:35.382Z,3.15
2019-03-28T20:26:05.090Z,2.77
2019-03-28T20:28:35.266Z,3.40
2019-03-28T20:31:05.750Z,2.55
2019-03-28T20:33:35.968Z,3.83
2019-03-28T20:36:35.651Z,3.12
2019-03-28T20:38:41.732Z,2.65
2019-03-28T20:41:11.914Z,3.12
2019-03-28T20:43:43.456Z,3.30
2019-03-28T20:46:14.850Z,1.82
2019-03-28T20:48:48.088Z,3.20
2019-03-28T20:51:20.676Z,2.17
2019-03-28T20:53:50.843Z,2.30
2019-03-28T20:56:21.085Z,2.35
2019-03-28T20:58:51.351Z,2.40
2019-03-28T21:01:21.714Z,1.90
2019-03-28T21:03:53.265Z,2.27
2019-03-28T21:06:23.813Z,1.82
2019-03-28T21:08:54.412Z,2.27
2019-03-28T21:11:25.692Z,2.58
2019-03-28T21:13:56.047Z,2.45
2019-03-28T21:16:26.278Z,1.82
2019-03-28T21:18:58.072Z,2.20
2019-03-28T21:21:28.274Z,3.15
2019-03-28T21:23:59.056Z,2.80
2019-03-28T21:26:29.204Z,2.70
2019-03-28T21:28:59.586Z,2.90
2019-03-28T21:31:29.758Z,3.55
2019-03-28T21:34:00.024Z,3.40
2019-03-28T21:36:30.652Z,4.90
2019-03-28T21:39:03.732Z,2.70
2019-03-28T21:41:35.066Z,3.45
2019-03-28T21:44:05.412Z,3.05
2019-03-28T21:46:35.628Z,2.80
2019-03-28T21:49:05.809Z,3.60
2019-03-28T21:51:40.699Z,2.80
2019-03-28T21:54:11.088Z,4.47
2019-03-28T21:56:41.619Z,2.58
2019-03-28T21:59:11.947Z,2.72
2019-03-28T22:01:43.107Z,3.27
2019-03-28T22:04:13.271Z,3.00
2019-03-28T22:06:43.518Z,3.40
2019-03-28T22:09:13.750Z,2.87
2019-03-28T22:11:43.983Z,3.17
2019-03-28T22:14:17.095Z,4.10
2019-03-28T22:16:47.265Z,3.65
2019-03-28T22:19:17.475Z,2.77
2019-03-28T22:21:47.651Z,4.67
2019-03-28T22:24:18.160Z,4.35
2019-03-28T22:26:48.315Z,3.90
2019-03-28T22:29:18.488Z,3.80
2019-03-28T22:31:52.865Z,5.37
2019-03-28T22:34:24.852Z,5.35
2019-03-28T22:36:57.588Z,5.00
2019-03-28T22:39:26.946Z,4.58
2019-03-28T22:41:57.184Z,4.90
2019-03-28T22:44:27.426Z,3.40
2019-03-28T22:46:57.588Z,3.40
2019-03-28T22:49:28.572Z,4.05
2019-03-28T22:51:58.753Z,3.77
2019-03-28T22:54:29.086Z,3.67
2019-03-28T22:56:59.743Z,3.90
2019-03-28T22:59:30.056Z,3.98
2019-03-28T23:02:00.342Z,5.08
2019-03-28T23:04:30.783Z,4.85
2019-03-28T23:07:10.949Z,4.70
2019-03-28T23:09:33.259Z,2.85
2019-03-28T23:12:03.496Z,3.55
2019-03-28T23:14:33.867Z,3.85
2019-03-28T23:17:04.082Z,4.55
2019-03-28T23:19:34.392Z,4.20
2019-03-28T23:22:04.643Z,4.05
2019-03-28T23:24:34.828Z,3.02
2019-03-28T23:27:06.083Z,3.35
2019-03-28T23:29:36.824Z,4.12
2019-03-28T23:32:07.080Z,4.40
2019-03-28T23:34:37.232Z,3.87
2019-03-28T23:37:07.423Z,4.17
2019-03-28T23:39:37.856Z,3.45
2019-03-28T23:42:08.305Z,3.35
2019-03-28T23:44:38.462Z,3.50
2019-03-28T23:47:08.584Z,2.95
2019-03-28T23:49:41.242Z,3.70
2019-03-28T23:52:12.405Z,3.50
2019-03-28T23:54:42.599Z,5.00
2019-03-28T23:57:12.744Z,3.72
2019-03-28T23:59:42.888Z,3.95
